Time;durP1;ratioP1;P1;durP2;ratioP2;P2;SDS_P1;SDS_P2;PMS_P1;PMS_P2;Temp;Humidity;BMP_temperature;BMP_pressure;BME280_temperature;BME280_humidity;BME280_pressure;Samples;Min_cycle;Max_cycle;Signal;HPM_P1;HPM_P2
2022/01/29 00:00:55;;;;;;;51.42;32.85;;;7.40;99.90;;;;;;5047144;28;20275;-42
2022/01/29 00:03:23;;;;;;;50.90;33.17;;;7.40;99.90;;;;;;5046352;28;20021;-42
2022/01/29 00:05:49;;;;;;;52.85;33.65;;;7.40;99.90;;;;;;5046497;28;20447;-44
2022/01/29 00:08:15;;;;;;;49.65;31.63;;;7.40;99.90;;;;;;5046055;28;20032;-43
2022/01/29 00:10:42;;;;;;;51.88;32.80;;;7.40;99.90;;;;;;5046532;28;20640;-43
2022/01/29 00:13:08;;;;;;;53.60;33.83;;;7.40;99.90;;;;;;5046489;28;20047;-42
2022/01/29 00:15:33;;;;;;;59.58;34.25;;;7.40;99.90;;;;;;5046363;28;20025;-43
2022/01/29 00:17:59;;;;;;;56.33;34.95;;;7.40;99.90;;;;;;5046645;28;20037;-43
2022/01/29 00:20:25;;;;;;;53.35;33.63;;;7.40;99.90;;;;;;5046204;28;20029;-43
2022/01/29 00:22:50;;;;;;;51.38;32.42;;;7.40;99.90;;;;;;5046475;28;20086;-42
2022/01/29 00:25:16;;;;;;;46.45;30.50;;;7.40;99.90;;;;;;5046687;28;20056;-42
2022/01/29 00:27:41;;;;;;;54.85;34.15;;;7.40;99.90;;;;;;5045937;28;20021;-43
2022/01/29 00:30:08;;;;;;;50.97;32.90;;;7.40;99.90;;;;;;5046861;28;20094;-43
2022/01/29 00:32:35;;;;;;;52.20;34.58;;;7.30;99.90;;;;;;5046271;28;20021;-44
2022/01/29 00:35:00;;;;;;;56.50;33.78;;;7.30;99.90;;;;;;5046282;28;20086;-43
2022/01/29 00:37:26;;;;;;;49.72;31.63;;;7.30;99.90;;;;;;5045858;28;20028;-43
2022/01/29 00:39:52;;;;;;;53.13;33.92;;;7.20;99.90;;;;;;5047154;28;20357;-43
2022/01/29 00:42:17;;;;;;;51.17;32.75;;;7.20;99.90;;;;;;5045223;28;20108;-43
2022/01/29 00:44:44;;;;;;;58.25;36.38;;;7.20;99.90;;;;;;5046792;28;20090;-43
2022/01/29 00:47:10;;;;;;;55.88;35.25;;;7.20;99.90;;;;;;5049880;28;20041;-43
2022/01/29 00:49:36;;;;;;;57.60;35.30;;;7.20;99.90;;;;;;5049879;28;20027;-43
2022/01/29 00:52:03;;;;;;;58.70;35.75;;;7.20;99.90;;;;;;5050053;28;20052;-43
2022/01/29 00:54:28;;;;;;;58.33;36.13;;;7.10;99.90;;;;;;5049203;28;20027;-42
2022/01/29 00:56:54;;;;;;;67.53;38.15;;;7.10;99.90;;;;;;5049564;28;20032;-43
2022/01/29 00:59:19;;;;;;;54.83;34.15;;;7.10;99.90;;;;;;5049703;28;20388;-42
2022/01/29 01:01:45;;;;;;;55.03;33.47;;;7.10;99.90;;;;;;5049593;28;20033;-42
2022/01/29 01:04:10;;;;;;;47.55;32.20;;;7.20;99.90;;;;;;5049264;28;20155;-43
2022/01/29 01:06:36;;;;;;;56.70;36.58;;;7.20;99.90;;;;;;5049931;28;20086;-44
2022/01/29 01:09:02;;;;;;;58.80;35.70;;;7.20;99.90;;;;;;5049286;28;20166;-41
2022/01/29 01:11:27;;;;;;;60.25;36.83;;;7.20;99.90;;;;;;5048922;28;20055;-42
2022/01/29 01:13:53;;;;;;;58.70;35.63;;;7.20;99.90;;;;;;5050127;28;20036;-43
2022/01/29 01:16:18;;;;;;;51.97;33.40;;;7.20;99.90;;;;;;5048724;28;20028;-42
2022/01/29 01:18:44;;;;;;;52.72;32.03;;;7.20;99.90;;;;;;5049694;28;20028;-44
2022/01/29 01:21:09;;;;;;;56.53;34.25;;;7.20;99.90;;;;;;5049765;28;20469;-43
2022/01/29 01:23:35;;;;;;;59.03;36.95;;;7.20;99.90;;;;;;5048759;28;20029;-43
2022/01/29 01:26:02;;;;;;;57.38;36.30;;;7.20;99.90;;;;;;5048342;28;20116;-43
2022/01/29 01:28:28;;;;;;;55.55;35.22;;;7.20;99.90;;;;;;5035219;28;20242;-44
2022/01/29 01:30:53;;;;;;;54.67;33.30;;;7.20;99.90;;;;;;5048938;28;20025;-42
2022/01/29 01:33:19;;;;;;;51.95;32.22;;;7.20;99.90;;;;;;5048991;28;20037;-43
2022/01/29 01:35:49;;;;;;;53.35;32.85;;;7.30;99.90;;;;;;5049710;28;20056;-43
2022/01/29 01:38:20;;;;;;;48.15;30.77;;;7.30;99.90;;;;;;5047987;28;20115;-43
2022/01/29 01:40:51;;;;;;;56.58;32.85;;;7.20;99.90;;;;;;5049160;28;20032;-43
2022/01/29 01:43:17;;;;;;;52.63;32.20;;;7.30;99.90;;;;;;5048487;28;20036;-44
2022/01/29 01:45:43;;;;;;;51.40;32.42;;;7.30;99.90;;;;;;5049374;28;20108;-44
2022/01/29 01:48:08;;;;;;;45.13;28.23;;;7.30;99.90;;;;;;5049016;28;20384;-43
2022/01/29 01:50:35;;;;;;;46.35;29.67;;;7.30;99.90;;;;;;5048370;28;20071;-43
2022/01/29 01:53:03;;;;;;;54.45;33.20;;;7.30;99.90;;;;;;5049204;28;20056;-44
2022/01/29 01:55:29;;;;;;;47.63;30.52;;;7.40;99.90;;;;;;5048319;28;20029;-42
2022/01/29 01:57:55;;;;;;;51.88;32.00;;;7.30;99.90;;;;;;5048738;28;20048;-43
2022/01/29 02:00:21;;;;;;;53.35;32.92;;;7.40;99.90;;;;;;5048649;28;20032;-43
2022/01/29 02:02:47;;;;;;;48.92;32.53;;;7.40;99.90;;;;;;5048633;28;20025;-42
2022/01/29 02:05:12;;;;;;;49.08;30.60;;;7.40;99.90;;;;;;5047948;28;20021;-43
2022/01/29 02:07:58;;;;;;;48.42;31.73;;;7.40;99.90;;;;;;5048583;28;20029;-42
2022/01/29 02:10:26;;;;;;;51.50;32.55;;;7.40;99.90;;;;;;5047992;28;20041;-43
2022/01/29 02:12:57;;;;;;;47.33;31.40;;;7.40;99.90;;;;;;5048041;28;20465;-42
2022/01/29 02:15:24;;;;;;;41.35;27.83;;;7.40;99.90;;;;;;5047625;28;20108;-43
2022/01/29 02:17:50;;;;;;;46.17;31.77;;;7.40;99.90;;;;;;5048944;28;20094;-44
2022/01/29 02:20:18;;;;;;;46.65;31.13;;;7.40;99.90;;;;;;5047023;28;20017;-43
2022/01/29 02:22:44;;;;;;;49.47;32.40;;;7.40;99.90;;;;;;5049149;28;20375;-43
2022/01/29 02:25:40;;;;;;;44.33;29.95;;;7.40;99.90;;;;;;5048297;28;20035;-43
2022/01/29 02:28:07;;;;;;;45.03;30.20;;;7.40;99.90;;;;;;5039045;28;20431;-43
2022/01/29 02:30:35;;;;;;;46.80;31.52;;;7.40;99.90;;;;;;5048259;28;20573;-42
2022/01/29 02:33:06;;;;;;;49.03;31.42;;;7.40;99.90;;;;;;5036944;28;20526;-43
2022/01/29 02:35:32;;;;;;;45.35;30.92;;;7.40;99.90;;;;;;5047548;28;20032;-43
2022/01/29 02:37:58;;;;;;;42.10;28.98;;;7.40;99.90;;;;;;5048654;28;20041;-43
2022/01/29 02:40:24;;;;;;;44.20;31.85;;;7.40;99.90;;;;;;5047055;28;20076;-42
2022/01/29 02:42:52;;;;;;;40.08;28.60;;;7.30;99.90;;;;;;5048022;28;20156;-43
2022/01/29 02:45:18;;;;;;;39.97;28.30;;;7.30;99.90;;;;;;5047507;28;20051;-43
2022/01/29 02:47:43;;;;;;;42.47;29.85;;;7.40;99.90;;;;;;5047366;28;20421;-44
2022/01/29 02:50:09;;;;;;;41.20;28.83;;;7.40;99.90;;;;;;5048011;28;20072;-43
2022/01/29 02:52:35;;;;;;;37.33;26.80;;;7.40;99.90;;;;;;5047916;28;20053;-43
2022/01/29 02:55:01;;;;;;;39.13;26.60;;;7.40;99.90;;;;;;5047739;28;20029;-44
2022/01/29 02:57:27;;;;;;;34.30;25.80;;;7.40;99.90;;;;;;5046877;28;20845;-43
2022/01/29 02:59:55;;;;;;;37.15;27.17;;;7.40;99.90;;;;;;5047992;28;20013;-43
2022/01/29 03:02:20;;;;;;;37.30;26.75;;;7.40;99.90;;;;;;5046494;28;20017;-43
2022/01/29 03:04:46;;;;;;;41.58;28.35;;;7.40;99.90;;;;;;5047951;28;20074;-43
2022/01/29 03:07:11;;;;;;;34.88;25.73;;;7.40;99.90;;;;;;5047454;28;20072;-42
2022/01/29 03:09:37;;;;;;;34.72;24.88;;;7.40;99.90;;;;;;5046330;28;20031;-42
2022/01/29 03:12:02;;;;;;;34.80;25.50;;;7.40;99.90;;;;;;5047613;28;20025;-42
2022/01/29 03:14:28;;;;;;;36.00;26.42;;;7.40;99.90;;;;;;5047647;28;20555;-42
2022/01/29 03:16:53;;;;;;;35.58;26.27;;;7.50;99.90;;;;;;5046900;28;20112;-43
2022/01/29 03:19:19;;;;;;;35.13;26.13;;;7.40;99.90;;;;;;5047207;28;20439;-42
2022/01/29 03:21:44;;;;;;;36.05;26.73;;;7.50;99.90;;;;;;5047374;28;20029;-42
2022/01/29 03:24:10;;;;;;;35.72;25.70;;;7.50;99.90;;;;;;5046923;28;20029;-43
2022/01/29 03:26:35;;;;;;;37.40;26.92;;;7.50;99.90;;;;;;5047185;28;20087;-42
2022/01/29 03:29:01;;;;;;;34.05;26.52;;;7.40;99.90;;;;;;5047328;28;20565;-43
2022/01/29 03:31:26;;;;;;;34.78;25.08;;;7.40;99.90;;;;;;5046683;28;20037;-42
2022/01/29 03:33:53;;;;;;;35.95;26.05;;;7.50;99.90;;;;;;5047173;28;20559;-43
2022/01/29 03:36:18;;;;;;;38.10;26.73;;;7.50;99.90;;;;;;5046582;28;20078;-43
2022/01/29 03:38:44;;;;;;;38.45;28.00;;;7.50;99.90;;;;;;5046604;28;20384;-42
2022/01/29 03:41:13;;;;;;;35.05;25.83;;;7.50;99.90;;;;;;5047278;28;20052;-43
2022/01/29 03:43:45;;;;;;;38.22;28.23;;;7.50;99.90;;;;;;5046309;28;20376;-44
2022/01/29 03:46:10;;;;;;;39.10;28.10;;;7.50;99.90;;;;;;5046749;28;20128;-43
2022/01/29 03:48:36;;;;;;;38.67;27.92;;;7.50;99.90;;;;;;5046940;28;20642;-42
2022/01/29 03:51:01;;;;;;;36.35;27.52;;;7.50;99.90;;;;;;5047005;28;20035;-42
2022/01/29 03:53:27;;;;;;;39.55;28.25;;;7.50;99.90;;;;;;5045887;28;20045;-43
2022/01/29 03:55:52;;;;;;;36.78;27.05;;;7.50;99.90;;;;;;5046869;28;20067;-43
2022/01/29 03:58:18;;;;;;;32.85;24.45;;;7.50;99.90;;;;;;5045987;28;20124;-42
2022/01/29 04:00:43;;;;;;;35.15;26.10;;;7.50;99.90;;;;;;5047209;28;20016;-43
2022/01/29 04:03:09;;;;;;;39.88;26.52;;;7.50;99.90;;;;;;5046604;28;20025;-43
2022/01/29 04:05:35;;;;;;;37.70;25.95;;;7.60;99.90;;;;;;5046247;28;20028;-43
2022/01/29 04:08:00;;;;;;;36.65;25.67;;;7.60;99.90;;;;;;5046882;28;20017;-42
2022/01/29 04:10:29;;;;;;;35.47;24.08;;;7.60;99.90;;;;;;5046302;28;20029;-43
2022/01/29 04:12:56;;;;;;;38.45;27.70;;;7.60;99.90;;;;;;5046328;28;20023;-43
2022/01/29 04:15:21;;;;;;;33.15;25.10;;;7.60;99.90;;;;;;5046388;28;20033;-42
2022/01/29 04:17:47;;;;;;;31.23;23.63;;;7.60;99.90;;;;;;5047470;28;20511;-42
2022/01/29 04:20:12;;;;;;;36.88;25.95;;;7.60;99.90;;;;;;5048576;28;20032;-43
2022/01/29 04:22:38;;;;;;;37.67;25.42;;;7.70;99.90;;;;;;5050873;28;20423;-42
2022/01/29 04:25:04;;;;;;;35.38;26.00;;;7.60;99.90;;;;;;5050483;28;20052;-43
2022/01/29 04:27:50;;;;;;;39.88;27.33;;;7.70;99.90;;;;;;5050028;28;20032;-42
2022/01/29 04:30:28;;;;;;;40.15;26.88;;;7.70;99.90;;;;;;5049561;28;20443;-43
2022/01/29 04:33:01;;;;;;;43.00;27.02;;;7.70;99.90;;;;;;5050378;28;20484;-42
2022/01/29 04:35:27;;;;;;;39.42;26.58;;;7.70;99.90;;;;;;5049617;28;20037;-42
2022/01/29 04:37:53;;;;;;;36.30;25.75;;;7.80;99.90;;;;;;5050688;28;20075;-42
2022/01/29 04:40:20;;;;;;;39.05;27.30;;;7.80;99.90;;;;;;5049463;28;20025;-42
2022/01/29 04:42:45;;;;;;;35.65;26.98;;;7.80;99.90;;;;;;5050771;28;20037;-44
2022/01/29 04:45:11;;;;;;;35.15;26.52;;;7.80;99.90;;;;;;5049988;28;20074;-42
2022/01/29 04:47:37;;;;;;;39.20;26.60;;;7.80;99.90;;;;;;5049908;28;20116;-44
2022/01/29 04:50:04;;;;;;;52.10;30.40;;;7.90;99.90;;;;;;5050469;28;20116;-43
2022/01/29 04:52:29;;;;;;;39.50;26.40;;;7.90;99.90;;;;;;5049419;28;20115;-43
2022/01/29 04:54:55;;;;;;;39.28;27.48;;;7.90;99.90;;;;;;5049664;28;20413;-42
2022/01/29 04:57:20;;;;;;;42.10;28.92;;;7.90;99.90;;;;;;5050010;28;20097;-44
2022/01/29 04:59:46;;;;;;;41.88;29.20;;;7.90;99.90;;;;;;5050321;28;20397;-43
2022/01/29 05:02:11;;;;;;;45.03;30.10;;;8.00;99.90;;;;;;5048898;28;20029;-43
2022/01/29 05:04:37;;;;;;;46.15;30.20;;;8.00;99.90;;;;;;5049667;28;20097;-43
2022/01/29 05:07:03;;;;;;;44.50;30.30;;;8.00;99.90;;;;;;5050333;28;20051;-42
2022/01/29 05:09:28;;;;;;;46.80;31.70;;;8.00;99.90;;;;;;5048737;28;20439;-43
2022/01/29 05:11:55;;;;;;;44.45;30.10;;;8.00;99.90;;;;;;5050128;28;20021;-42
2022/01/29 05:14:32;;;;;;;49.45;32.42;;;8.00;99.90;;;;;;5048810;28;20508;-43
2022/01/29 05:27:52;;;;;;;44.13;28.42;;;8.10;99.90;;;;;;5047437;28;20113;-43
2022/01/29 05:30:17;;;;;;;42.90;30.00;;;8.10;99.90;;;;;;5048185;28;20025;-43
2022/01/29 05:32:43;;;;;;;42.17;30.00;;;8.10;99.90;;;;;;5049116;28;20032;-43
2022/01/29 05:35:09;;;;;;;43.33;30.02;;;8.10;99.90;;;;;;5049843;28;20025;-44
2022/01/29 05:37:34;;;;;;;43.47;29.95;;;8.20;99.90;;;;;;5048130;28;20032;-43
2022/01/29 05:40:07;;;;;;;45.20;29.58;;;8.20;99.90;;;;;;5049137;28;20075;-42
2022/01/29 05:42:32;;;;;;;42.60;27.90;;;8.20;99.90;;;;;;5048688;28;20021;-42
2022/01/29 05:44:58;;;;;;;46.03;30.73;;;8.20;99.90;;;;;;5049331;28;20032;-43
2022/01/29 05:47:24;;;;;;;44.03;30.13;;;8.20;99.90;;;;;;5048744;28;20436;-43
2022/01/29 05:49:49;;;;;;;41.03;28.40;;;8.30;99.90;;;;;;5049160;28;20017;-42
2022/01/29 05:52:15;;;;;;;44.50;29.83;;;8.30;99.90;;;;;;5048034;28;20049;-42
2022/01/29 05:54:40;;;;;;;40.85;28.05;;;8.30;99.90;;;;;;5048981;28;20503;-42
2022/01/29 05:57:06;;;;;;;37.63;27.48;;;8.30;99.90;;;;;;5048598;28;20044;-43
2022/01/29 05:59:35;;;;;;;44.97;29.10;;;8.30;99.90;;;;;;5048686;28;20017;-43
2022/01/29 06:02:00;;;;;;;43.72;29.52;;;8.30;99.90;;;;;;5049296;28;20021;-43
2022/01/29 06:04:26;;;;;;;40.15;28.10;;;8.30;99.90;;;;;;5047734;28;20017;-42
2022/01/29 06:06:51;;;;;;;35.88;27.15;;;8.30;99.90;;;;;;5049005;28;20029;-42
2022/01/29 06:09:16;;;;;;;43.92;29.23;;;8.30;99.90;;;;;;5047791;28;20043;-43
2022/01/29 06:11:42;;;;;;;42.03;28.40;;;8.30;99.90;;;;;;5048419;28;20035;-43
2022/01/29 06:14:09;;;;;;;40.97;27.48;;;8.30;99.90;;;;;;5048741;28;20020;-43
2022/01/29 06:16:34;;;;;;;44.70;29.55;;;8.40;99.90;;;;;;5048743;28;20086;-41
2022/01/29 06:19:00;;;;;;;40.50;28.67;;;8.40;99.90;;;;;;5047817;28;20024;-42
2022/01/29 06:21:28;;;;;;;44.80;29.60;;;8.40;99.90;;;;;;5048481;28;20111;-42
2022/01/29 06:23:53;;;;;;;41.60;29.63;;;8.40;99.90;;;;;;5048214;28;20048;-44
2022/01/29 06:26:19;;;;;;;39.83;29.40;;;8.40;99.90;;;;;;5047655;28;20148;-44
2022/01/29 06:28:45;;;;;;;38.92;28.30;;;8.40;99.90;;;;;;5048321;28;20021;-43
2022/01/29 06:31:10;;;;;;;44.35;30.30;;;8.40;99.90;;;;;;5048251;28;20033;-43
2022/01/29 06:33:36;;;;;;;39.83;27.95;;;8.40;99.90;;;;;;5047835;28;20087;-44
2022/01/29 06:36:02;;;;;;;44.22;29.52;;;8.50;99.90;;;;;;5048147;28;20036;-43
2022/01/29 06:38:27;;;;;;;43.40;29.42;;;8.40;99.90;;;;;;5047649;28;20040;-44
2022/01/29 06:40:53;;;;;;;39.58;27.83;;;8.40;99.90;;;;;;5047500;28;20029;-42
2022/01/29 06:43:19;;;;;;;43.35;27.58;;;8.50;99.90;;;;;;5046549;28;20115;-43
2022/01/29 06:45:45;;;;;;;37.13;26.38;;;8.50;99.90;;;;;;5047621;28;20021;-43
2022/01/29 06:48:12;;;;;;;40.47;28.77;;;8.50;99.90;;;;;;5048450;28;20357;-43
2022/01/29 06:50:38;;;;;;;38.10;26.33;;;8.50;99.90;;;;;;5047729;28;20032;-42
2022/01/29 06:53:05;;;;;;;42.00;28.45;;;8.50;99.90;;;;;;5047424;28;20051;-43
2022/01/29 06:55:31;;;;;;;34.83;26.45;;;8.60;99.90;;;;;;5047326;28;20028;-43
2022/01/29 06:57:56;;;;;;;34.25;24.52;;;8.60;99.90;;;;;;5047748;28;20494;-43
2022/01/29 07:00:22;;;;;;;32.20;23.73;;;8.60;99.90;;;;;;5046888;28;20112;-44
2022/01/29 07:02:48;;;;;;;33.85;23.33;;;8.70;99.90;;;;;;5047942;28;20039;-43
2022/01/29 07:05:14;;;;;;;31.70;23.63;;;8.70;99.90;;;;;;5047288;28;20020;-43
2022/01/29 07:07:39;;;;;;;29.60;21.83;;;8.70;99.90;;;;;;5047150;28;20021;-44
2022/01/29 07:10:07;;;;;;;33.03;23.30;;;8.70;99.90;;;;;;5047910;28;20059;-42
2022/01/29 07:12:33;;;;;;;32.42;22.90;;;8.70;99.90;;;;;;5047331;28;20033;-43
2022/01/29 07:14:58;;;;;;;32.53;23.08;;;8.70;99.90;;;;;;5047050;28;20032;-43
2022/01/29 07:17:24;;;;;;;30.95;21.85;;;8.70;99.90;;;;;;5046820;28;20029;-43
2022/01/29 07:19:51;;;;;;;28.73;20.77;;;8.70;99.90;;;;;;5047620;28;20067;-43
2022/01/29 07:22:17;;;;;;;25.67;19.65;;;8.80;99.90;;;;;;5046420;28;20025;-43
2022/01/29 07:24:43;;;;;;;26.13;19.70;;;8.80;99.90;;;;;;5047721;28;20060;-43
2022/01/29 07:27:09;;;;;;;29.15;20.80;;;8.80;99.90;;;;;;5047292;28;20361;-43
2022/01/29 07:29:34;;;;;;;30.38;20.20;;;8.80;99.90;;;;;;5046590;28;20396;-43
2022/01/29 07:32:01;;;;;;;25.00;19.17;;;8.80;99.90;;;;;;5047055;28;20103;-42
2022/01/29 07:34:27;;;;;;;26.10;19.08;;;8.80;99.90;;;;;;5046850;28;20453;-43
2022/01/29 07:36:54;;;;;;;26.23;18.70;;;8.80;99.90;;;;;;5046489;28;20549;-42
2022/01/29 07:39:21;;;;;;;24.05;17.75;;;8.80;99.90;;;;;;5046771;28;20060;-42
2022/01/29 07:41:47;;;;;;;22.50;17.73;;;8.80;99.90;;;;;;5046706;28;20033;-42
2022/01/29 07:44:13;;;;;;;24.48;18.23;;;8.80;99.90;;;;;;5046358;28;20033;-44
2022/01/29 07:46:40;;;;;;;22.20;15.70;;;8.80;99.90;;;;;;5047026;28;20020;-43
2022/01/29 07:49:05;;;;;;;25.60;17.60;;;8.80;99.90;;;;;;5047107;28;20032;-43
2022/01/29 07:51:31;;;;;;;21.63;16.83;;;8.90;99.90;;;;;;5045810;28;20217;-43
2022/01/29 07:53:56;;;;;;;22.42;16.13;;;8.90;99.90;;;;;;5046657;28;20037;-42
2022/01/29 07:56:22;;;;;;;24.88;16.15;;;8.90;99.90;;;;;;5046053;28;20032;-43
2022/01/29 07:58:51;;;;;;;24.35;16.85;;;8.90;99.90;;;;;;5046920;28;20050;-44
2022/01/29 08:01:17;;;;;;;21.08;16.10;;;8.90;99.90;;;;;;5046386;28;20040;-43
2022/01/29 08:03:50;;;;;;;21.15;14.68;;;9.00;99.90;;;;;;5046222;28;20033;-43
2022/01/29 08:06:17;;;;;;;20.65;15.10;;;9.00;99.90;;;;;;5046604;28;20028;-42
2022/01/29 08:08:43;;;;;;;18.00;14.23;;;9.00;99.90;;;;;;5047561;28;20074;-43
2022/01/29 08:11:10;;;;;;;16.45;14.18;;;9.00;99.90;;;;;;5046172;28;20108;-43
2022/01/29 08:13:36;;;;;;;20.00;14.48;;;9.10;99.90;;;;;;5046559;28;20032;-44
2022/01/29 08:16:06;;;;;;;18.55;14.30;;;9.10;99.90;;;;;;5047457;28;20029;-43
2022/01/29 08:18:31;;;;;;;19.52;14.10;;;9.10;99.90;;;;;;5045931;28;20045;-42
2022/01/29 08:20:57;;;;;;;21.42;14.30;;;9.10;99.90;;;;;;5047069;28;20127;-44
2022/01/29 08:23:23;;;;;;;19.98;13.98;;;9.20;99.90;;;;;;5046513;28;20037;-43
2022/01/29 08:25:49;;;;;;;18.77;14.52;;;9.20;99.90;;;;;;5046493;28;20091;-43
2022/01/29 08:28:15;;;;;;;17.05;13.88;;;9.20;99.90;;;;;;5046080;28;20534;-44
2022/01/29 08:30:41;;;;;;;15.93;13.68;;;9.20;99.90;;;;;;5047132;28;20120;-43
2022/01/29 08:33:06;;;;;;;18.58;14.30;;;9.20;99.90;;;;;;5046163;28;20492;-43
2022/01/29 08:35:33;;;;;;;20.27;15.07;;;9.30;99.90;;;;;;5046929;28;20372;-43
2022/01/29 08:37:58;;;;;;;19.50;14.30;;;9.30;99.90;;;;;;5047097;28;20043;-42
2022/01/29 08:40:24;;;;;;;14.88;13.35;;;9.30;99.90;;;;;;5045452;28;20353;-43
2022/01/29 08:42:50;;;;;;;19.42;15.00;;;9.30;99.90;;;;;;5046560;28;20029;-43
2022/01/29 08:45:16;;;;;;;16.40;13.68;;;9.30;99.90;;;;;;5042951;28;20055;-43
2022/01/29 08:47:42;;;;;;;21.23;15.55;;;9.40;99.90;;;;;;5045590;28;20037;-43
2022/01/29 08:50:10;;;;;;;19.73;14.15;;;9.40;99.90;;;;;;5045653;28;20043;-43
2022/01/29 08:52:36;;;;;;;17.27;14.27;;;9.40;99.90;;;;;;5045033;28;20060;-43
2022/01/29 08:55:03;;;;;;;17.63;14.68;;;9.40;99.90;;;;;;5045330;28;20043;-43
2022/01/29 08:57:29;;;;;;;22.67;15.00;;;9.40;99.90;;;;;;5045435;28;20060;-42
2022/01/29 08:59:54;;;;;;;18.83;14.32;;;9.50;99.90;;;;;;5044858;28;20028;-43
2022/01/29 09:02:20;;;;;;;19.85;14.65;;;9.40;99.90;;;;;;5045663;28;20029;-42
2022/01/29 09:04:45;;;;;;;19.40;13.95;;;9.50;99.90;;;;;;5045228;28;20025;-43
2022/01/29 09:07:11;;;;;;;19.50;15.00;;;9.40;99.90;;;;;;5047615;28;20104;-43
2022/01/29 09:09:40;;;;;;;18.33;14.32;;;9.40;99.90;;;;;;5049439;28;20082;-43
2022/01/29 09:12:06;;;;;;;18.20;14.07;;;9.50;99.90;;;;;;5049956;28;20135;-45
2022/01/29 09:14:31;;;;;;;18.67;13.48;;;9.40;99.90;;;;;;5048282;28;20106;-43
2022/01/29 09:16:57;;;;;;;16.88;13.45;;;9.40;99.90;;;;;;5049045;28;20153;-42
2022/01/29 09:19:22;;;;;;;18.30;13.40;;;9.50;99.90;;;;;;5048937;28;20364;-43
2022/01/29 09:21:48;;;;;;;19.63;13.43;;;9.40;99.90;;;;;;5048542;28;20554;-42
2022/01/29 09:24:14;;;;;;;17.40;13.20;;;9.50;99.90;;;;;;5049048;28;20021;-44
2022/01/29 09:26:39;;;;;;;19.65;13.00;;;9.50;99.90;;;;;;5049048;28;20630;-43
2022/01/29 09:29:05;;;;;;;17.05;12.38;;;9.50;99.90;;;;;;5048613;28;20037;-43
2022/01/29 09:31:30;;;;;;;17.48;12.27;;;9.50;99.90;;;;;;5048383;28;20384;-44
2022/01/29 09:33:57;;;;;;;17.33;12.13;;;9.60;99.90;;;;;;5049152;28;20784;-43
2022/01/29 09:36:23;;;;;;;17.17;12.13;;;9.60;99.90;;;;;;5046634;28;20666;-42
2022/01/29 09:38:48;;;;;;;15.07;11.70;;;9.60;99.90;;;;;;5049273;28;20116;-43
2022/01/29 09:41:17;;;;;;;15.20;11.48;;;9.70;99.90;;;;;;5048065;28;20043;-42
2022/01/29 09:43:45;;;;;;;13.40;10.98;;;9.70;99.90;;;;;;5048681;28;20100;-43
2022/01/29 09:46:16;;;;;;;12.88;10.98;;;9.80;99.90;;;;;;5047760;28;20041;-42
2022/01/29 09:48:43;;;;;;;13.82;9.70;;;9.80;99.90;;;;;;5048606;28;20147;-43
2022/01/29 09:51:12;;;;;;;15.98;10.95;;;9.80;99.90;;;;;;5047552;28;20036;-44
2022/01/29 09:53:43;;;;;;;10.52;9.45;;;9.80;99.90;;;;;;5048885;28;20028;-43
2022/01/29 09:56:12;;;;;;;13.95;10.02;;;9.90;99.90;;;;;;5047663;28;20104;-44
2022/01/29 09:58:38;;;;;;;11.55;9.18;;;9.90;99.90;;;;;;5048088;28;20369;-42
2022/01/29 10:01:04;;;;;;;12.90;9.15;;;9.90;99.90;;;;;;5048243;28;20020;-42
2022/01/29 10:03:30;;;;;;;12.55;8.70;;;10.00;99.90;;;;;;5047107;28;20025;-41
2022/01/29 10:06:00;;;;;;;12.05;8.18;;;10.00;99.90;;;;;;5047796;28;20029;-42
2022/01/29 10:08:27;;;;;;;10.93;7.78;;;10.00;99.90;;;;;;5048111;28;20029;-43
2022/01/29 10:10:58;;;;;;;10.90;7.75;;;10.00;99.90;;;;;;5047253;28;20025;-42
2022/01/29 10:13:31;;;;;;;10.60;8.05;;;10.10;99.90;;;;;;5037292;28;20032;-43
2022/01/29 10:16:23;;;;;;;;;;;10.10;99.90;;;;;;5048892;28;20113;-42
2022/01/29 10:19:05;;;;;;;9.80;6.07;;;10.10;99.90;;;;;;5038533;28;19916;-43
2022/01/29 10:21:34;;;;;;;10.05;6.85;;;10.10;99.90;;;;;;5047365;28;20104;-42
2022/01/29 10:24:02;;;;;;;10.73;6.90;;;10.10;99.90;;;;;;5047762;28;20310;-43
2022/01/29 10:26:30;;;;;;;11.02;6.30;;;10.10;99.90;;;;;;5047221;28;20032;-43
2022/01/29 10:28:56;;;;;;;11.63;6.50;;;10.10;99.90;;;;;;5048279;28;20020;-43
2022/01/29 10:31:22;;;;;;;9.90;6.07;;;10.10;99.90;;;;;;5046632;28;20028;-42
2022/01/29 10:33:48;;;;;;;9.18;5.70;;;10.10;99.90;;;;;;5046011;28;20416;-42
2022/01/29 10:36:17;;;;;;;11.27;5.60;;;10.10;99.90;;;;;;5046297;28;20025;-43
2022/01/29 10:38:53;;;;;;;9.00;5.03;;;10.20;99.90;;;;;;5047172;28;20029;-43
2022/01/29 10:41:25;;;;;;;7.78;5.05;;;10.20;99.90;;;;;;5046799;28;20025;-43
2022/01/29 10:44:22;;;;;;;9.45;4.78;;;10.30;99.90;;;;;;5047827;28;20419;-42
2022/01/29 10:46:55;;;;;;;10.13;5.13;;;10.40;99.90;;;;;;5046155;28;20112;-43
2022/01/29 10:49:27;;;;;;;7.22;4.10;;;10.40;99.90;;;;;;5046693;28;20086;-42
2022/01/29 10:51:55;;;;;;;6.78;5.05;;;10.50;99.90;;;;;;5046755;28;20060;-43
2022/01/29 10:54:21;;;;;;;9.57;4.95;;;10.60;99.90;;;;;;5046763;28;20020;-43
2022/01/29 10:56:58;;;;;;;6.82;4.45;;;10.60;99.90;;;;;;5047013;28;20411;-43
2022/01/29 10:59:25;;;;;;;8.00;5.07;;;10.60;99.90;;;;;;5044183;28;20547;-43
2022/01/29 11:02:03;;;;;;;8.20;4.65;;;10.60;99.90;;;;;;5047172;28;20025;-43
2022/01/29 11:04:30;;;;;;;8.23;4.95;;;10.60;99.90;;;;;;5047241;28;20108;-43
2022/01/29 11:07:01;;;;;;;9.55;5.10;;;10.60;99.90;;;;;;5047393;28;20017;-43
2022/01/29 11:09:28;;;;;;;10.05;4.70;;;10.70;99.90;;;;;;5046805;28;20024;-43
2022/01/29 11:11:56;;;;;;;8.15;4.30;;;10.70;99.90;;;;;;5047621;28;20025;-43
2022/01/29 11:14:22;;;;;;;6.63;4.00;;;10.70;99.90;;;;;;5046156;28;20029;-43
2022/01/29 11:16:50;;;;;;;6.68;5.03;;;10.70;99.90;;;;;;5047853;28;20045;-44
2022/01/29 11:19:16;;;;;;;8.45;4.03;;;10.80;99.90;;;;;;5046987;28;20123;-43
2022/01/29 11:21:44;;;;;;;6.35;3.30;;;10.80;99.90;;;;;;5046455;28;20028;-44
2022/01/29 11:24:12;;;;;;;6.32;3.55;;;10.90;99.90;;;;;;5048329;28;20028;-43
2022/01/29 11:26:39;;;;;;;8.45;4.20;;;10.90;99.90;;;;;;5050207;28;20017;-43
2022/01/29 11:29:30;;;;;;;6.80;3.15;;;10.90;99.90;;;;;;5046196;28;20094;-44
2022/01/29 11:32:20;;;;;;;6.35;3.17;;;10.90;99.90;;;;;;5047229;28;20025;-43
2022/01/29 11:35:04;;;;;;;4.30;3.13;;;10.90;99.90;;;;;;5046948;28;20033;-42
2022/01/29 11:37:57;;;;;;;6.72;2.90;;;10.90;99.90;;;;;;5026986;28;20048;-42
2022/01/29 11:40:22;;;;;;;4.70;2.70;;;10.90;99.90;;;;;;5044107;28;20063;-44
2022/01/29 11:43:04;;;;;;;5.55;2.67;;;11.00;99.90;;;;;;5046656;28;20040;-43
2022/01/29 11:45:42;;;;;;;8.05;2.63;;;11.00;99.90;;;;;;5046926;28;20158;-42
2022/01/29 11:48:32;;;;;;;4.80;2.50;;;11.00;99.90;;;;;;5046603;28;20039;-43
2022/01/29 11:51:02;;;;;;;12.07;2.88;;;11.10;99.90;;;;;;5043434;28;20033;-43
2022/01/29 11:53:45;;;;;;;6.43;2.55;;;11.10;99.90;;;;;;5046883;28;20064;-43
2022/01/29 11:56:29;;;;;;;7.38;2.22;;;11.10;99.90;;;;;;5044967;28;20078;-42
2022/01/29 11:59:20;;;;;;;9.07;2.88;;;11.10;99.90;;;;;;5046940;28;20146;-43
2022/01/29 12:01:57;;;;;;;7.90;2.60;;;11.10;99.90;;;;;;5046932;28;20124;-43
2022/01/29 12:04:43;;;;;;;6.45;2.15;;;11.10;99.90;;;;;;5045864;28;20433;-42
2022/01/29 12:07:13;;;;;;;8.18;2.20;;;11.10;99.90;;;;;;5038877;28;20100;-43
2022/01/29 12:09:49;;;;;;;5.68;2.30;;;11.10;99.90;;;;;;5045774;28;20028;-43
2022/01/29 12:12:24;;;;;;;6.72;2.25;;;11.20;99.90;;;;;;5046328;28;20121;-44
2022/01/29 12:14:55;;;;;;;6.95;2.67;;;11.30;99.90;;;;;;5047163;28;20040;-42
2022/01/29 12:17:48;;;;;;;8.80;2.65;;;11.30;99.90;;;;;;5046003;28;20033;-43
2022/01/29 12:20:16;;;;;;;6.82;1.90;;;11.40;99.90;;;;;;5046320;28;20017;-43
2022/01/29 12:22:43;;;;;;;3.58;1.70;;;11.40;99.90;;;;;;5036245;28;20056;-42
2022/01/29 12:25:12;;;;;;;5.18;2.42;;;11.50;99.90;;;;;;5046111;28;20396;-43
2022/01/29 12:27:59;;;;;;;5.30;2.00;;;11.50;99.90;;;;;;5046655;28;20028;-43
2022/01/29 12:30:37;;;;;;;5.10;1.92;;;11.50;99.90;;;;;;5044910;28;20013;-43
2022/01/29 12:33:26;;;;;;;7.03;2.50;;;11.40;99.90;;;;;;5035724;28;20076;-43
2022/01/29 12:36:01;;;;;;;9.65;2.35;;;11.40;99.90;;;;;;5046957;28;20051;-42
2022/01/29 12:38:43;;;;;;;8.27;2.83;;;11.40;99.90;;;;;;5045789;28;20368;-42
2022/01/29 12:41:24;;;;;;;5.70;2.30;;;11.50;99.90;;;;;;5047016;28;20484;-44
2022/01/29 12:43:52;;;;;;;5.93;2.30;;;11.50;99.90;;;;;;5050718;28;20514;-43
2022/01/29 12:46:23;;;;;;;7.10;2.40;;;11.50;99.90;;;;;;5049418;28;20036;-43
2022/01/29 12:49:10;;;;;;;5.85;2.35;;;11.50;99.90;;;;;;5050299;28;20472;-41
2022/01/29 12:51:48;;;;;;;6.68;2.78;;;11.60;99.90;;;;;;5049374;28;20060;-45
2022/01/29 12:54:14;;;;;;;4.72;2.20;;;11.60;99.90;;;;;;5049577;28;20504;-42